sensor_id;sensor_type;location;lat;lon;timestamp;pressure;altitude;pressure_sealevel;temperature
68440;BMP180;55421;51.600;5.718;2022-10-31T00:01:29;153267.59;;;14.60
68440;BMP180;55421;51.600;5.718;2022-10-31T00:03:56;153954.59;;;14.60
68440;BMP180;55421;51.600;5.718;2022-10-31T00:06:23;150473.80;;;14.60
68440;BMP180;55421;51.600;5.718;2022-10-31T00:08:56;153409.59;;;14.60
68440;BMP180;55421;51.600;5.718;2022-10-31T00:11:23;152972.80;;;14.60
68440;BMP180;55421;51.600;5.718;2022-10-31T00:13:49;153638.59;;;14.60
68440;BMP180;55421;51.600;5.718;2022-10-31T00:16:20;154944.59;;;14.50
68440;BMP180;55421;51.600;5.718;2022-10-31T00:18:52;151873.00;;;14.50
68440;BMP180;55421;51.600;5.718;2022-10-31T00:21:20;151608.80;;;14.40
68440;BMP180;55421;51.600;5.718;2022-10-31T00:23:48;151248.41;;;14.30
68440;BMP180;55421;51.600;5.718;2022-10-31T00:26:14;151187.59;;;14.20
68440;BMP180;55421;51.600;5.718;2022-10-31T00:28:41;152264.59;;;14.20
68440;BMP180;55421;51.600;5.718;2022-10-31T00:31:10;153866.20;;;14.10
68440;BMP180;55421;51.600;5.718;2022-10-31T00:33:39;151483.41;;;14.00
68440;BMP180;55421;51.600;5.718;2022-10-31T00:36:10;150379.59;;;14.00
68440;BMP180;55421;51.600;5.718;2022-10-31T00:38:37;148825.00;;;13.90
68440;BMP180;55421;51.600;5.718;2022-10-31T00:41:03;149981.20;;;13.90
68440;BMP180;55421;51.600;5.718;2022-10-31T00:43:30;149984.00;;;13.90
68440;BMP180;55421;51.600;5.718;2022-10-31T00:45:56;146870.41;;;14.00
68440;BMP180;55421;51.600;5.718;2022-10-31T00:48:23;147947.41;;;13.90
68440;BMP180;55421;51.600;5.718;2022-10-31T00:50:49;148510.80;;;13.80
68440;BMP180;55421;51.600;5.718;2022-10-31T00:53:16;148462.20;;;13.76
68440;BMP180;55421;51.600;5.718;2022-10-31T00:55:42;151230.00;;;13.76
68440;BMP180;55421;51.600;5.718;2022-10-31T00:58:08;151132.80;;;13.80
68440;BMP180;55421;51.600;5.718;2022-10-31T01:00:35;149620.00;;;13.80
68440;BMP180;55421;51.600;5.718;2022-10-31T01:03:02;150044.20;;;13.80
68440;BMP180;55421;51.600;5.718;2022-10-31T01:05:28;145908.41;;;13.80
68440;BMP180;55421;51.600;5.718;2022-10-31T01:07:55;148050.41;;;13.74
68440;BMP180;55421;51.600;5.718;2022-10-31T01:10:22;144727.41;;;13.70
68440;BMP180;55421;51.600;5.718;2022-10-31T01:12:49;148992.41;;;13.60
68440;BMP180;55421;51.600;5.718;2022-10-31T01:15:20;146124.00;;;13.52
68440;BMP180;55421;51.600;5.718;2022-10-31T01:17:49;145842.80;;;13.60
68440;BMP180;55421;51.600;5.718;2022-10-31T01:20:17;144268.00;;;13.50
68440;BMP180;55421;51.600;5.718;2022-10-31T01:22:44;143042.20;;;13.40
68440;BMP180;55421;51.600;5.718;2022-10-31T01:25:11;140134.00;;;13.30
68440;BMP180;55421;51.600;5.718;2022-10-31T01:27:37;133578.20;;;13.20
68440;BMP180;55421;51.600;5.718;2022-10-31T01:30:05;142640.20;;;13.20
68440;BMP180;55421;51.600;5.718;2022-10-31T01:32:32;148591.41;;;13.32
68440;BMP180;55421;51.600;5.718;2022-10-31T01:34:58;147371.41;;;13.40
68440;BMP180;55421;51.600;5.718;2022-10-31T01:37:25;142033.59;;;13.40
68440;BMP180;55421;51.600;5.718;2022-10-31T01:39:51;143252.20;;;13.40
68440;BMP180;55421;51.600;5.718;2022-10-31T01:42:22;145373.59;;;13.30
68440;BMP180;55421;51.600;5.718;2022-10-31T01:44:59;148874.59;;;13.20
68440;BMP180;55421;51.600;5.718;2022-10-31T01:47:53;147755.00;;;13.20
68440;BMP180;55421;51.600;5.718;2022-10-31T01:50:27;150420.00;;;13.10
68440;BMP180;55421;51.600;5.718;2022-10-31T01:52:54;154177.00;;;13.00
68440;BMP180;55421;51.600;5.718;2022-10-31T01:55:35;154917.59;;;12.90
68440;BMP180;55421;51.600;5.718;2022-10-31T01:58:14;156520.59;;;12.90
68440;BMP180;55421;51.600;5.718;2022-10-31T02:00:46;156128.41;;;12.80
68440;BMP180;55421;51.600;5.718;2022-10-31T02:03:15;156925.80;;;12.80
68440;BMP180;55421;51.600;5.718;2022-10-31T02:05:43;156285.20;;;12.80
68440;BMP180;55421;51.600;5.718;2022-10-31T02:08:23;156469.80;;;12.74
68440;BMP180;55421;51.600;5.718;2022-10-31T02:10:51;158244.80;;;12.78
68440;BMP180;55421;51.600;5.718;2022-10-31T02:13:20;157710.80;;;12.80
68440;BMP180;55421;51.600;5.718;2022-10-31T02:15:52;157246.20;;;12.80
68440;BMP180;55421;51.600;5.718;2022-10-31T02:18:20;158367.59;;;12.90
68440;BMP180;55421;51.600;5.718;2022-10-31T02:26:57;158594.00;;;13.00
68440;BMP180;55421;51.600;5.718;2022-10-31T02:32:32;129024.80;;;13.00
68440;BMP180;55421;51.600;5.718;2022-10-31T02:35:25;67622.20;;;13.00
68440;BMP180;55421;51.600;5.718;2022-10-31T02:38:06;94276.60;;;13.00
68440;BMP180;55421;51.600;5.718;2022-10-31T02:40:48;110273.00;;;13.02
68440;BMP180;55421;51.600;5.718;2022-10-31T02:43:32;125541.40;;;13.02
68440;BMP180;55421;51.600;5.718;2022-10-31T02:46:22;90473.80;;;13.00
68440;BMP180;55421;51.600;5.718;2022-10-31T02:48:57;36918.60;;;13.00
68440;BMP180;55421;51.600;5.718;2022-10-31T02:51:27;68391.80;;;12.90
68440;BMP180;55421;51.600;5.718;2022-10-31T02:53:53;79714.40;;;12.82
68440;BMP180;55421;51.600;5.718;2022-10-31T02:56:20;74711.60;;;12.80
68440;BMP180;55421;51.600;5.718;2022-10-31T02:58:55;98234.60;;;12.70
68440;BMP180;55421;51.600;5.718;2022-10-31T03:01:47;77821.60;;;12.70
68440;BMP180;55421;51.600;5.718;2022-10-31T03:10:29;65089.80;;;12.76
68440;BMP180;55421;51.600;5.718;2022-10-31T03:13:36;80519.00;;;12.72
68440;BMP180;55421;51.600;5.718;2022-10-31T03:16:40;90709.60;;;12.70
68440;BMP180;55421;51.600;5.718;2022-10-31T03:19:16;85557.40;;;12.70
68440;BMP180;55421;51.600;5.718;2022-10-31T03:21:55;100652.00;;;12.60
68440;BMP180;55421;51.600;5.718;2022-10-31T03:24:28;133915.80;;;12.60
68440;BMP180;55421;51.600;5.718;2022-10-31T03:26:59;94371.40;;;12.60
68440;BMP180;55421;51.600;5.718;2022-10-31T03:29:30;102593.00;;;12.60
68440;BMP180;55421;51.600;5.718;2022-10-31T03:32:09;101427.80;;;12.60
68440;BMP180;55421;51.600;5.718;2022-10-31T03:34:41;94495.80;;;12.60
68440;BMP180;55421;51.600;5.718;2022-10-31T03:37:12;36586.00;;;12.60
68440;BMP180;55421;51.600;5.718;2022-10-31T03:39:43;99270.00;;;12.60
68440;BMP180;55421;51.600;5.718;2022-10-31T03:42:23;110179.60;;;12.58
68440;BMP180;55421;51.600;5.718;2022-10-31T03:45:14;53138.80;;;12.54
68440;BMP180;55421;51.600;5.718;2022-10-31T03:47:43;84535.60;;;12.50
68440;BMP180;55421;51.600;5.718;2022-10-31T03:50:14;116931.00;;;12.44
68440;BMP180;55421;51.600;5.718;2022-10-31T03:52:55;85750.00;;;12.40
68440;BMP180;55421;51.600;5.718;2022-10-31T03:55:39;63396.20;;;12.30
68440;BMP180;55421;51.600;5.718;2022-10-31T03:58:12;111368.80;;;12.30
68440;BMP180;55421;51.600;5.718;2022-10-31T04:00:45;97789.20;;;12.30
68440;BMP180;55421;51.600;5.718;2022-10-31T04:03:29;90261.00;;;12.20
68440;BMP180;55421;51.600;5.718;2022-10-31T04:06:06;118097.80;;;12.20
68440;BMP180;55421;51.600;5.718;2022-10-31T04:08:41;93712.20;;;12.20
68440;BMP180;55421;51.600;5.718;2022-10-31T04:11:13;114359.00;;;12.18
68440;BMP180;55421;51.600;5.718;2022-10-31T04:13:44;125834.60;;;12.20
68440;BMP180;55421;51.600;5.718;2022-10-31T04:16:13;109525.60;;;12.16
68440;BMP180;55421;51.600;5.718;2022-10-31T04:18:41;92331.00;;;12.10
68440;BMP180;55421;51.600;5.718;2022-10-31T04:21:08;81982.80;;;12.10
68440;BMP180;55421;51.600;5.718;2022-10-31T04:23:36;83603.40;;;12.10
68440;BMP180;55421;51.600;5.718;2022-10-31T04:26:03;112513.20;;;12.10
68440;BMP180;55421;51.600;5.718;2022-10-31T04:28:29;134525.41;;;12.10
68440;BMP180;55421;51.600;5.718;2022-10-31T04:30:56;142952.00;;;12.00
68440;BMP180;55421;51.600;5.718;2022-10-31T04:33:22;105230.40;;;11.94
68440;BMP180;55421;51.600;5.718;2022-10-31T04:35:49;78920.40;;;11.90
68440;BMP180;55421;51.600;5.718;2022-10-31T04:38:15;67652.60;;;11.80
68440;BMP180;55421;51.600;5.718;2022-10-31T04:40:41;54692.20;;;11.80
68440;BMP180;55421;51.600;5.718;2022-10-31T04:43:08;69233.60;;;11.80
68440;BMP180;55421;51.600;5.718;2022-10-31T04:45:34;93536.00;;;11.80
68440;BMP180;55421;51.600;5.718;2022-10-31T04:48:01;81366.20;;;11.80
68440;BMP180;55421;51.600;5.718;2022-10-31T04:50:27;96581.60;;;11.74
68440;BMP180;55421;51.600;5.718;2022-10-31T04:52:54;132635.20;;;11.76
68440;BMP180;55421;51.600;5.718;2022-10-31T04:55:21;129774.40;;;11.80
68440;BMP180;55421;51.600;5.718;2022-10-31T04:57:49;125782.60;;;11.78
68440;BMP180;55421;51.600;5.718;2022-10-31T05:00:21;95690.00;;;11.78
68440;BMP180;55421;51.600;5.718;2022-10-31T05:02:56;90972.40;;;11.70
68440;BMP180;55421;51.600;5.718;2022-10-31T05:05:29;95439.00;;;11.70
68440;BMP180;55421;51.600;5.718;2022-10-31T05:07:56;124367.80;;;11.60
68440;BMP180;55421;51.600;5.718;2022-10-31T05:10:27;71187.60;;;11.60
68440;BMP180;55421;51.600;5.718;2022-10-31T05:12:58;68188.00;;;11.60
68440;BMP180;55421;51.600;5.718;2022-10-31T05:15:26;118582.60;;;11.60
68440;BMP180;55421;51.600;5.718;2022-10-31T05:17:53;72080.20;;;11.60
68440;BMP180;55421;51.600;5.718;2022-10-31T05:20:24;119845.00;;;11.60
68440;BMP180;55421;51.600;5.718;2022-10-31T05:22:53;132916.20;;;11.60
68440;BMP180;55421;51.600;5.718;2022-10-31T05:25:23;40014.60;;;11.60
68440;BMP180;55421;51.600;5.718;2022-10-31T05:27:51;96748.60;;;11.60
68440;BMP180;55421;51.600;5.718;2022-10-31T05:30:22;97181.40;;;11.60
68440;BMP180;55421;51.600;5.718;2022-10-31T05:32:50;91520.80;;;11.50
68440;BMP180;55421;51.600;5.718;2022-10-31T05:35:21;113852.00;;;11.50
68440;BMP180;55421;51.600;5.718;2022-10-31T05:37:48;124215.60;;;11.50
68440;BMP180;55421;51.600;5.718;2022-10-31T05:40:26;85577.20;;;11.50
68440;BMP180;55421;51.600;5.718;2022-10-31T05:42:55;47583.00;;;11.50
68440;BMP180;55421;51.600;5.718;2022-10-31T05:45:22;35227.60;;;11.50
68440;BMP180;55421;51.600;5.718;2022-10-31T05:47:54;87510.60;;;11.50
68440;BMP180;55421;51.600;5.718;2022-10-31T05:50:23;88678.00;;;11.50
68440;BMP180;55421;51.600;5.718;2022-10-31T05:55:22;104638.40;;;11.50
68440;BMP180;55421;51.600;5.718;2022-10-31T05:57:49;68074.60;;;11.50
68440;BMP180;55421;51.600;5.718;2022-10-31T06:00:15;81274.60;;;11.40
68440;BMP180;55421;51.600;5.718;2022-10-31T06:02:42;52493.40;;;11.40
68440;BMP180;55421;51.600;5.718;2022-10-31T06:05:08;96764.60;;;11.40
68440;BMP180;55421;51.600;5.718;2022-10-31T06:07:35;78256.40;;;11.44
68440;BMP180;55421;51.600;5.718;2022-10-31T06:10:05;69871.00;;;11.40
68440;BMP180;55421;51.600;5.718;2022-10-31T06:12:33;55282.60;;;11.40
68440;BMP180;55421;51.600;5.718;2022-10-31T06:15:05;49207.20;;;11.36
68440;BMP180;55421;51.600;5.718;2022-10-31T06:17:34;69058.00;;;11.30
68440;BMP180;55421;51.600;5.718;2022-10-31T06:20:01;107629.00;;;11.26
68440;BMP180;55421;51.600;5.718;2022-10-31T06:22:28;98970.00;;;11.20
68440;BMP180;55421;51.600;5.718;2022-10-31T06:24:54;88107.80;;;11.16
68440;BMP180;55421;51.600;5.718;2022-10-31T06:27:21;66908.00;;;11.10
68440;BMP180;55421;51.600;5.718;2022-10-31T06:29:47;70004.00;;;11.08
68440;BMP180;55421;51.600;5.718;2022-10-31T06:32:14;87153.20;;;11.00
68440;BMP180;55421;51.600;5.718;2022-10-31T06:34:42;67252.40;;;11.00
68440;BMP180;55421;51.600;5.718;2022-10-31T06:37:11;85183.40;;;10.92
68440;BMP180;55421;51.600;5.718;2022-10-31T06:39:38;105225.60;;;10.90
68440;BMP180;55421;51.600;5.718;2022-10-31T06:42:05;41817.20;;;10.90
68440;BMP180;55421;51.600;5.718;2022-10-31T06:44:32;53269.60;;;10.90
68440;BMP180;55421;51.600;5.718;2022-10-31T06:46:59;68756.80;;;10.90
68440;BMP180;55421;51.600;5.718;2022-10-31T06:49:25;86033.20;;;10.90
68440;BMP180;55421;51.600;5.718;2022-10-31T06:51:52;110259.60;;;10.90
68440;BMP180;55421;51.600;5.718;2022-10-31T06:54:18;127467.60;;;11.00
68440;BMP180;55421;51.600;5.718;2022-10-31T06:56:48;95001.80;;;11.10
68440;BMP180;55421;51.600;5.718;2022-10-31T06:59:15;68416.60;;;11.20
68440;BMP180;55421;51.600;5.718;2022-10-31T07:01:42;55920.40;;;11.20
68440;BMP180;55421;51.600;5.718;2022-10-31T07:04:10;84596.00;;;11.20
68440;BMP180;55421;51.600;5.718;2022-10-31T07:06:37;74027.40;;;11.30
68440;BMP180;55421;51.600;5.718;2022-10-31T07:09:04;110425.80;;;11.36
68440;BMP180;55421;51.600;5.718;2022-10-31T07:11:31;48305.40;;;11.40
68440;BMP180;55421;51.600;5.718;2022-10-31T07:13:57;68032.80;;;11.40
68440;BMP180;55421;51.600;5.718;2022-10-31T07:16:24;57754.40;;;11.40
68440;BMP180;55421;51.600;5.718;2022-10-31T07:18:50;56482.40;;;11.40
68440;BMP180;55421;51.600;5.718;2022-10-31T07:21:16;103570.00;;;11.50
68440;BMP180;55421;51.600;5.718;2022-10-31T07:23:43;126139.40;;;11.56
68440;BMP180;55421;51.600;5.718;2022-10-31T07:26:10;88527.20;;;11.60
68440;BMP180;55421;51.600;5.718;2022-10-31T07:28:36;120548.40;;;11.70
68440;BMP180;55421;51.600;5.718;2022-10-31T07:31:03;56964.80;;;11.70
68440;BMP180;55421;51.600;5.718;2022-10-31T07:33:29;61645.40;;;11.70
68440;BMP180;55421;51.600;5.718;2022-10-31T07:35:55;65588.40;;;11.78
68440;BMP180;55421;51.600;5.718;2022-10-31T07:38:22;70306.40;;;11.80
68440;BMP180;55421;51.600;5.718;2022-10-31T07:40:52;107845.80;;;11.80
68440;BMP180;55421;51.600;5.718;2022-10-31T07:43:19;104827.20;;;11.80
68440;BMP180;55421;51.600;5.718;2022-10-31T07:45:51;111494.20;;;11.80
68440;BMP180;55421;51.600;5.718;2022-10-31T07:48:19;59566.20;;;11.80
68440;BMP180;55421;51.600;5.718;2022-10-31T07:50:45;54063.00;;;11.90
68440;BMP180;55421;51.600;5.718;2022-10-31T07:53:14;69735.80;;;11.96
68440;BMP180;55421;51.600;5.718;2022-10-31T07:55:41;123905.80;;;12.04
68440;BMP180;55421;51.600;5.718;2022-10-31T07:58:16;85469.40;;;12.10
68440;BMP180;55421;51.600;5.718;2022-10-31T08:00:45;73401.00;;;12.20
68440;BMP180;55421;51.600;5.718;2022-10-31T08:03:16;55065.60;;;12.30
68440;BMP180;55421;51.600;5.718;2022-10-31T08:05:43;75413.60;;;12.36
68440;BMP180;55421;51.600;5.718;2022-10-31T08:08:14;92728.40;;;12.46
68440;BMP180;55421;51.600;5.718;2022-10-31T08:10:41;76608.60;;;12.50
68440;BMP180;55421;51.600;5.718;2022-10-31T08:13:12;84736.20;;;12.60
68440;BMP180;55421;51.600;5.718;2022-10-31T08:15:40;128492.40;;;12.62
68440;BMP180;55421;51.600;5.718;2022-10-31T08:18:13;122355.20;;;12.70
68440;BMP180;55421;51.600;5.718;2022-10-31T08:20:41;32759.80;;;12.72
68440;BMP180;55421;51.600;5.718;2022-10-31T08:23:11;51437.00;;;12.80
68440;BMP180;55421;51.600;5.718;2022-10-31T08:25:38;86327.60;;;12.90
68440;BMP180;55421;51.600;5.718;2022-10-31T08:28:06;128967.40;;;13.00
68440;BMP180;55421;51.600;5.718;2022-10-31T08:30:36;84862.80;;;13.10
68440;BMP180;55421;51.600;5.718;2022-10-31T08:33:14;117706.40;;;13.10
68440;BMP180;55421;51.600;5.718;2022-10-31T08:35:41;145480.00;;;13.20
68440;BMP180;55421;51.600;5.718;2022-10-31T08:38:11;112310.80;;;13.30
68440;BMP180;55421;51.600;5.718;2022-10-31T08:40:38;106394.00;;;13.40
68440;BMP180;55421;51.600;5.718;2022-10-31T08:43:11;122703.00;;;13.50
68440;BMP180;55421;51.600;5.718;2022-10-31T08:45:38;116657.00;;;13.60
68440;BMP180;55421;51.600;5.718;2022-10-31T08:48:12;138723.00;;;13.70
68440;BMP180;55421;51.600;5.718;2022-10-31T08:50:39;112361.20;;;13.80
68440;BMP180;55421;51.600;5.718;2022-10-31T08:53:10;81938.20;;;13.90
68440;BMP180;55421;51.600;5.718;2022-10-31T08:55:39;94213.40;;;14.00
68440;BMP180;55421;51.600;5.718;2022-10-31T08:58:10;146378.80;;;14.10
68440;BMP180;55421;51.600;5.718;2022-10-31T09:00:37;132606.20;;;14.20
68440;BMP180;55421;51.600;5.718;2022-10-31T09:03:09;150298.20;;;14.20
68440;BMP180;55421;51.600;5.718;2022-10-31T09:05:36;93031.60;;;14.20
68440;BMP180;55421;51.600;5.718;2022-10-31T09:08:04;125239.80;;;14.20
68440;BMP180;55421;51.600;5.718;2022-10-31T09:10:33;107854.40;;;14.20
68440;BMP180;55421;51.600;5.718;2022-10-31T09:13:08;104377.20;;;14.20
68440;BMP180;55421;51.600;5.718;2022-10-31T09:15:38;133679.80;;;14.20
68440;BMP180;55421;51.600;5.718;2022-10-31T09:18:06;134659.20;;;14.20
68440;BMP180;55421;51.600;5.718;2022-10-31T09:20:36;150291.41;;;14.20
68440;BMP180;55421;51.600;5.718;2022-10-31T09:23:12;91744.60;;;14.14
68440;BMP180;55421;51.600;5.718;2022-10-31T09:25:39;129494.00;;;14.20
68440;BMP180;55421;51.600;5.718;2022-10-31T09:28:10;136681.00;;;14.20
68440;BMP180;55421;51.600;5.718;2022-10-31T09:30:37;146304.80;;;14.20
68440;BMP180;55421;51.600;5.718;2022-10-31T09:33:07;120704.20;;;14.30
68440;BMP180;55421;51.600;5.718;2022-10-31T09:35:35;65628.60;;;14.40
68440;BMP180;55421;51.600;5.718;2022-10-31T09:38:14;142523.59;;;14.54
68440;BMP180;55421;51.600;5.718;2022-10-31T09:40:57;54573.60;;;14.70
68440;BMP180;55421;51.600;5.718;2022-10-31T09:43:46;137276.20;;;14.80
68440;BMP180;55421;51.600;5.718;2022-10-31T09:46:41;160946.41;;;14.90
68440;BMP180;55421;51.600;5.718;2022-10-31T09:49:34;149630.59;;;15.00
68440;BMP180;55421;51.600;5.718;2022-10-31T09:52:20;129985.20;;;15.00
68440;BMP180;55421;51.600;5.718;2022-10-31T09:54:59;159574.80;;;15.00
68440;BMP180;55421;51.600;5.718;2022-10-31T09:57:34;151547.20;;;15.00
68440;BMP180;55421;51.600;5.718;2022-10-31T10:00:05;151888.80;;;15.00
68440;BMP180;55421;51.600;5.718;2022-10-31T10:02:43;150938.80;;;15.00
68440;BMP180;55421;51.600;5.718;2022-10-31T10:05:24;161287.59;;;15.00
68440;BMP180;55421;51.600;5.718;2022-10-31T10:08:07;159268.00;;;15.00
68440;BMP180;55421;51.600;5.718;2022-10-31T10:22:57;163885.41;;;15.32
68440;BMP180;55421;51.600;5.718;2022-10-31T10:25:37;103255.40;;;15.40
68440;BMP180;55421;51.600;5.718;2022-10-31T10:28:30;130047.40;;;15.50
68440;BMP180;55421;51.600;5.718;2022-10-31T10:31:24;150219.20;;;15.70
68440;BMP180;55421;51.600;5.718;2022-10-31T10:34:17;161859.00;;;15.90
68440;BMP180;55421;51.600;5.718;2022-10-31T10:37:00;162518.00;;;16.10
68440;BMP180;55421;51.600;5.718;2022-10-31T10:39:41;160580.41;;;16.20
68440;BMP180;55421;51.600;5.718;2022-10-31T10:42:15;161325.80;;;16.30
68440;BMP180;55421;51.600;5.718;2022-10-31T10:45:15;164050.41;;;16.30
68440;BMP180;55421;51.600;5.718;2022-10-31T10:48:19;166455.00;;;16.30
68440;BMP180;55421;51.600;5.718;2022-10-31T10:50:52;148098.20;;;16.20
68440;BMP180;55421;51.600;5.718;2022-10-31T10:56:23;160102.00;;;16.20
68440;BMP180;55421;51.600;5.718;2022-10-31T10:58:55;162474.59;;;16.20
68440;BMP180;55421;51.600;5.718;2022-10-31T11:01:22;160479.41;;;16.30
68440;BMP180;55421;51.600;5.718;2022-10-31T11:03:49;163198.41;;;16.30
68440;BMP180;55421;51.600;5.718;2022-10-31T11:06:22;157599.00;;;16.30
68440;BMP180;55421;51.600;5.718;2022-10-31T11:08:52;159635.00;;;16.30
68440;BMP180;55421;51.600;5.718;2022-10-31T11:11:26;164964.20;;;16.30
68440;BMP180;55421;51.600;5.718;2022-10-31T11:14:02;166138.80;;;16.40
68440;BMP180;55421;51.600;5.718;2022-10-31T11:16:35;159928.59;;;16.40
68440;BMP180;55421;51.600;5.718;2022-10-31T11:21:38;165355.00;;;16.40
68440;BMP180;55421;51.600;5.718;2022-10-31T11:24:16;154643.59;;;16.40
68440;BMP180;55421;51.600;5.718;2022-10-31T11:26:46;140786.00;;;16.44
68440;BMP180;55421;51.600;5.718;2022-10-31T11:29:24;157541.41;;;16.50
68440;BMP180;55421;51.600;5.718;2022-10-31T11:31:54;164974.00;;;16.50
68440;BMP180;55421;51.600;5.718;2022-10-31T11:34:30;159421.20;;;16.50
68440;BMP180;55421;51.600;5.718;2022-10-31T11:37:11;143422.20;;;16.52
68440;BMP180;55421;51.600;5.718;2022-10-31T11:39:43;151994.80;;;16.60
68440;BMP180;55421;51.600;5.718;2022-10-31T11:42:12;160032.59;;;16.60
68440;BMP180;55421;51.600;5.718;2022-10-31T11:44:42;160189.59;;;16.68
68440;BMP180;55421;51.600;5.718;2022-10-31T11:47:15;124732.60;;;16.70
68440;BMP180;55421;51.600;5.718;2022-10-31T11:49:45;104555.20;;;16.80
68440;BMP180;55421;51.600;5.718;2022-10-31T11:52:24;82905.40;;;16.88
68440;BMP180;55421;51.600;5.718;2022-10-31T11:55:03;63377.80;;;16.92
68440;BMP180;55421;51.600;5.718;2022-10-31T11:57:50;78283.60;;;17.10
68440;BMP180;55421;51.600;5.718;2022-10-31T12:00:33;148151.59;;;17.20
68440;BMP180;55421;51.600;5.718;2022-10-31T12:06:02;163117.41;;;17.30
68440;BMP180;55421;51.600;5.718;2022-10-31T12:08:34;164855.41;;;17.30
68440;BMP180;55421;51.600;5.718;2022-10-31T12:11:34;165740.00;;;17.30
68440;BMP180;55421;51.600;5.718;2022-10-31T12:14:48;166343.00;;;17.40
68440;BMP180;55421;51.600;5.718;2022-10-31T12:17:24;165195.59;;;17.40
68440;BMP180;55421;51.600;5.718;2022-10-31T12:23:43;165752.20;;;17.40
68440;BMP180;55421;51.600;5.718;2022-10-31T12:26:43;166432.80;;;17.40
68440;BMP180;55421;51.600;5.718;2022-10-31T12:29:31;166248.41;;;17.40
68440;BMP180;55421;51.600;5.718;2022-10-31T12:32:47;166484.41;;;17.30
68440;BMP180;55421;51.600;5.718;2022-10-31T12:35:27;106815.60;;;17.26
68440;BMP180;55421;51.600;5.718;2022-10-31T12:43:48;99569.60;;;17.24
68440;BMP180;55421;51.600;5.718;2022-10-31T12:49:46;85110.40;;;17.30
68440;BMP180;55421;51.600;5.718;2022-10-31T12:52:39;84192.60;;;17.30
68440;BMP180;55421;51.600;5.718;2022-10-31T12:55:48;68601.00;;;17.30
68440;BMP180;55421;51.600;5.718;2022-10-31T12:58:35;63809.80;;;17.30
68440;BMP180;55421;51.600;5.718;2022-10-31T13:01:26;63688.40;;;17.30
68440;BMP180;55421;51.600;5.718;2022-10-31T13:04:05;59262.40;;;17.30
68440;BMP180;55421;51.600;5.718;2022-10-31T13:07:05;59185.60;;;17.30
68440;BMP180;55421;51.600;5.718;2022-10-31T13:09:38;52531.60;;;17.30
68440;BMP180;55421;51.600;5.718;2022-10-31T13:12:11;54264.40;;;17.30
68440;BMP180;55421;51.600;5.718;2022-10-31T13:14:44;77406.80;;;17.30
68440;BMP180;55421;51.600;5.718;2022-10-31T13:17:38;57235.60;;;17.30
68440;BMP180;55421;51.600;5.718;2022-10-31T13:20:21;52490.80;;;17.30
68440;BMP180;55421;51.600;5.718;2022-10-31T13:22:56;50298.00;;;17.20
68440;BMP180;55421;51.600;5.718;2022-10-31T13:25:28;45801.80;;;17.10
68440;BMP180;55421;51.600;5.718;2022-10-31T13:30:53;133755.20;;;17.10
68440;BMP180;55421;51.600;5.718;2022-10-31T13:33:30;139524.41;;;17.10
68440;BMP180;55421;51.600;5.718;2022-10-31T13:36:14;143852.00;;;17.10
68440;BMP180;55421;51.600;5.718;2022-10-31T13:39:21;147532.00;;;17.10
68440;BMP180;55421;51.600;5.718;2022-10-31T13:44:38;153409.20;;;17.10
68440;BMP180;55421;51.600;5.718;2022-10-31T13:47:29;155150.41;;;17.12
68440;BMP180;55421;51.600;5.718;2022-10-31T13:50:28;157004.80;;;17.20
68440;BMP180;55421;51.600;5.718;2022-10-31T13:55:48;140375.59;;;17.10
68440;BMP180;55421;51.600;5.718;2022-10-31T13:58:34;149826.59;;;17.10
68440;BMP180;55421;51.600;5.718;2022-10-31T14:03:39;151913.41;;;17.10
68440;BMP180;55421;51.600;5.718;2022-10-31T14:06:09;103827.40;;;17.20
68440;BMP180;55421;51.600;5.718;2022-10-31T14:08:47;115963.80;;;17.20
68440;BMP180;55421;51.600;5.718;2022-10-31T14:11:24;131333.80;;;17.20
68440;BMP180;55421;51.600;5.718;2022-10-31T14:13:56;128543.00;;;17.10
68440;BMP180;55421;51.600;5.718;2022-10-31T14:16:26;132913.00;;;17.10
68440;BMP180;55421;51.600;5.718;2022-10-31T14:19:21;145666.41;;;17.10
68440;BMP180;55421;51.600;5.718;2022-10-31T14:21:49;153708.20;;;17.10
68440;BMP180;55421;51.600;5.718;2022-10-31T14:29:47;145348.00;;;17.02
68440;BMP180;55421;51.600;5.718;2022-10-31T14:35:01;157491.41;;;17.02
68440;BMP180;55421;51.600;5.718;2022-10-31T14:37:32;157950.20;;;17.10
68440;BMP180;55421;51.600;5.718;2022-10-31T14:51:36;77196.00;;;17.20
68440;BMP180;55421;51.600;5.718;2022-10-31T14:54:27;47228.20;;;17.20
68440;BMP180;55421;51.600;5.718;2022-10-31T14:57:04;100198.00;;;17.20
68440;BMP180;55421;51.600;5.718;2022-10-31T14:59:35;99025.00;;;17.10
68440;BMP180;55421;51.600;5.718;2022-10-31T15:02:14;89141.00;;;17.10
68440;BMP180;55421;51.600;5.718;2022-10-31T15:04:45;116951.20;;;17.08
68440;BMP180;55421;51.600;5.718;2022-10-31T15:07:27;122781.60;;;17.00
68440;BMP180;55421;51.600;5.718;2022-10-31T15:10:06;149010.00;;;17.00
68440;BMP180;55421;51.600;5.718;2022-10-31T15:12:35;154350.80;;;16.90
68440;BMP180;55421;51.600;5.718;2022-10-31T15:15:20;157294.80;;;16.90
68440;BMP180;55421;51.600;5.718;2022-10-31T15:17:59;157464.80;;;16.90
68440;BMP180;55421;51.600;5.718;2022-10-31T15:20:28;112121.00;;;16.90
68440;BMP180;55421;51.600;5.718;2022-10-31T15:22:58;130067.60;;;16.90
68440;BMP180;55421;51.600;5.718;2022-10-31T15:25:31;150508.20;;;16.90
68440;BMP180;55421;51.600;5.718;2022-10-31T15:27:59;158485.00;;;16.90
68440;BMP180;55421;51.600;5.718;2022-10-31T15:30:28;161374.20;;;16.80
68440;BMP180;55421;51.600;5.718;2022-10-31T15:32:55;163292.00;;;16.80
68440;BMP180;55421;51.600;5.718;2022-10-31T15:35:26;164745.20;;;16.70
68440;BMP180;55421;51.600;5.718;2022-10-31T15:37:53;163386.59;;;16.70
68440;BMP180;55421;51.600;5.718;2022-10-31T15:40:24;145850.20;;;16.60
68440;BMP180;55421;51.600;5.718;2022-10-31T15:42:58;142100.00;;;16.50
68440;BMP180;55421;51.600;5.718;2022-10-31T15:45:28;150396.00;;;16.50
68440;BMP180;55421;51.600;5.718;2022-10-31T15:48:19;155417.41;;;16.40
68440;BMP180;55421;51.600;5.718;2022-10-31T15:50:55;151054.80;;;16.40
68440;BMP180;55421;51.600;5.718;2022-10-31T15:53:50;150120.80;;;16.30
68440;BMP180;55421;51.600;5.718;2022-10-31T15:56:28;134338.59;;;16.30
68440;BMP180;55421;51.600;5.718;2022-10-31T15:58:57;94596.80;;;16.22